Sikinos — 9HA2865 — position and weather

sailwx.info

Track history (hours):
 
Tides and Currents Weather Stations Pressure Air Temp Water Temp Dewpoint Dewpoint Depression Visibility Wind Speed Wind Dir Waves Ship Positions

Sikinos

Last reported at 2017-Jun-29 09:00 UTC. Time now 2017-Jun-29 09:08 UTC.
Position N 51°29' E 000°27'.

Length 90 m; draft 5.8 m.

Type: Ship (hazmat cat A). MMSI: 256462000.

Date/timePositionNaut miles runAvg speedWind from/ knotsBaromVisibWave heightAir tempDewpointWater temp
2017-Jun-29 09:00N 51°29' E 000°27'4 8.9
2017-Jun-29 08:30N 51°30' E 000°34'5 9.3
2017-Jun-29 08:00N 51°30' E 000°41'5 9.3
2017-Jun-29 07:30N 51°29' E 000°49'5 9.2
2017-Jun-29 07:00N 51°29' E 000°56'5 9.7
2017-Jun-29 06:30N 51°30' E 001°04'5 9.8
2017-Jun-29 06:00N 51°29' E 001°12'510.3
2017-Jun-29 05:30N 51°29' E 001°20'510.8
2017-Jun-29 05:01N 51°27' E 001°28'2 4.0
2017-Jun-29 04:30N 51°26' E 001°27'0 0.1
2017-Jun-29 04:00N 51°26' E 001°27'0 0.1
2017-Jun-29 03:30N 51°26' E 001°27'0 0.1
2017-Jun-29 03:00N 51°25' E 001°27'0 0.0
2017-Jun-29 02:30N 51°25' E 001°27'0 0.0
2017-Jun-29 02:00N 51°25' E 001°27'0 0.1
2017-Jun-29 01:30N 51°25' E 001°27'0 0.0
2017-Jun-29 01:00N 51°25' E 001°27'0 0.1
2017-Jun-29 00:30N 51°25' E 001°27'0 0.1
2017-Jun-29 00:00N 51°25' E 001°27'0 0.0
2017-Jun-28 23:30N 51°25' E 001°27'0 0.0
2017-Jun-28 23:00N 51°25' E 001°27'0 0.0
2017-Jun-28 22:30N 51°25' E 001°27'0 0.0
2017-Jun-28 22:00N 51°25' E 001°27'0 0.1
2017-Jun-28 21:31N 51°25' E 001°27'4 8.3
2017-Jun-28 21:00N 51°27' E 001°33'510.8
2017-Jun-28 20:30N 51°29' E 001°42'611.2
2017-Jun-28 20:00N 51°29' E 001°51'610.9
2017-Jun-28 19:30N 51°27' E 001°59'611.7
2017-Jun-28 19:01N 51°24' E 002°06'611.6
2017-Jun-28 18:30N 51°21' E 002°15'510.0
2017-Jun-28 17:59N 51°22' E 002°23'510.1
2017-Jun-28 17:30N 51°23' E 002°31'510.4
2017-Jun-28 17:00N 51°23' E 002°39'4 8.9
2017-Jun-28 16:30N 51°22' E 002°46'5 9.6
2017-Jun-28 16:00N 51°22' E 002°53'5 9.8
2017-Jun-28 15:30N 51°22' E 003°01'5 9.4
2017-Jun-28 15:00N 51°22' E 003°09'2 2.3
2017-Jun-28 13:59N 51°21' E 003°12'0 0.0
2017-Jun-28 13:29N 51°21' E 003°12'0 0.0
2017-Jun-28 12:59N 51°21' E 003°12'0 0.0
2017-Jun-28 12:29N 51°21' E 003°12'0 0.0
2017-Jun-28 11:59N 51°21' E 003°12'0 0.0
2017-Jun-28 11:26N 51°21' E 003°12'0 0.0
2017-Jun-28 10:59N 51°21' E 003°12'0 0.0
2017-Jun-28 10:29N 51°21' E 003°12'0 0.0
2017-Jun-28 09:56N 51°21' E 003°12'0 0.0
2017-Jun-28 09:29N 51°21' E 003°12'0 0.0
2017-Jun-28 08:59N 51°21' E 003°12'0 0.0
2017-Jun-28 08:29N 51°21' E 003°12'0 0.0
2017-Jun-28 07:59N 51°21' E 003°12'0 0.0
2017-Jun-28 07:29N 51°21' E 003°12'0 0.0
2017-Jun-28 06:59N 51°21' E 003°12'0 0.0
2017-Jun-28 06:29N 51°21' E 003°12'0 0.0
2017-Jun-28 05:59N 51°21' E 003°12'0 0.0
2017-Jun-28 05:29N 51°21' E 003°12'0 0.0
2017-Jun-28 04:59N 51°21' E 003°12'0 0.0
2017-Jun-28 04:29N 51°21' E 003°12'0 0.0
2017-Jun-28 03:59N 51°21' E 003°12'0 0.0
2017-Jun-28 03:29N 51°21' E 003°12'0 0.0
2017-Jun-28 02:56N 51°21' E 003°12'0 0.0
2017-Jun-28 02:29N 51°21' E 003°12'0 0.0
2017-Jun-28 01:59N 51°21' E 003°12'0 0.0
2017-Jun-28 01:26N 51°21' E 003°12'0 0.0
2017-Jun-28 00:59N 51°21' E 003°12'0 0.0
2017-Jun-28 00:26N 51°21' E 003°12'0 0.0
2017-Jun-27 23:56N 51°21' E 003°12'0 0.0
2017-Jun-27 23:29N 51°21' E 003°12'0 0.0
2017-Jun-27 22:59N 51°21' E 003°12'0 0.0
2017-Jun-27 22:29N 51°21' E 003°12'0 0.0
2017-Jun-27 21:56N 51°21' E 003°12'0 0.0
2017-Jun-27 21:29N 51°21' E 003°12'0 0.0
2017-Jun-27 20:56N 51°21' E 003°12'0 0.0
2017-Jun-27 20:26N 51°21' E 003°12'0 0.0
2017-Jun-27 19:59N 51°21' E 003°12'0 0.0
2017-Jun-27 19:29N 51°21' E 003°12'0 0.0
2017-Jun-27 18:59N 51°21' E 003°12'0 0.0
2017-Jun-27 18:29N 51°21' E 003°12'0 0.0
2017-Jun-27 17:59N 51°21' E 003°12'0 0.0
2017-Jun-27 17:29N 51°21' E 003°12'0 0.0
2017-Jun-27 16:56N 51°21' E 003°12'0 0.0
2017-Jun-27 16:29N 51°21' E 003°12'0 0.0
2017-Jun-27 15:59N 51°21' E 003°12'0 0.0
2017-Jun-27 15:29N 51°21' E 003°12'0 0.0
2017-Jun-27 14:59N 51°21' E 003°12'0 0.0
2017-Jun-27 13:59N 51°21' E 003°12'0 0.0
2017-Jun-27 13:29N 51°21' E 003°12'0 0.0
2017-Jun-27 12:59N 51°21' E 003°12'0 0.0
2017-Jun-27 12:29N 51°21' E 003°12'0 0.0
2017-Jun-27 11:59N 51°21' E 003°12'0 0.0
2017-Jun-27 11:29N 51°21' E 003°12'0 0.0
2017-Jun-27 10:59N 51°21' E 003°12'0 0.0
2017-Jun-27 10:29N 51°21' E 003°12'0 0.0
2017-Jun-27 09:59N 51°21' E 003°12'0 0.0
2017-Jun-27 09:29N 51°21' E 003°12'0 0.0
2017-Jun-27 08:59N 51°21' E 003°12'0 0.0
2017-Jun-27 08:29N 51°21' E 003°12'0 0.0
2017-Jun-27 07:59N 51°21' E 003°12'0 0.0
2017-Jun-27 07:29N 51°21' E 003°12'0 0.0
2017-Jun-27 06:59N 51°21' E 003°12'0 0.0
2017-Jun-27 06:29N 51°21' E 003°12'0 0.0
2017-Jun-27 05:56N 51°21' E 003°12'0 0.0
2017-Jun-27 05:29N 51°21' E 003°12'0 0.0
2017-Jun-27 04:59N 51°21' E 003°12'0 0.0
2017-Jun-27 04:29N 51°21' E 003°12'0 0.0
2017-Jun-27 03:59N 51°21' E 003°12'0 0.0
2017-Jun-27 03:29N 51°21' E 003°12'0 0.0
2017-Jun-27 02:59N 51°21' E 003°12'0 0.0
2017-Jun-27 02:29N 51°21' E 003°12'0 0.0
2017-Jun-27 01:59N 51°21' E 003°12'0 0.0
2017-Jun-27 01:29N 51°21' E 003°12'0 0.0
2017-Jun-27 00:59N 51°21' E 003°12'0 0.0
2017-Jun-27 00:29N 51°21' E 003°12'0 0.0
2017-Jun-26 23:59N 51°21' E 003°12'0 0.0
2017-Jun-26 23:29N 51°21' E 003°12'0 0.0
2017-Jun-26 22:59N 51°21' E 003°12'0 0.0
2017-Jun-26 22:28N 51°21' E 003°12'0 0.0
2017-Jun-26 21:58N 51°21' E 003°12'0 0.0
2017-Jun-26 21:29N 51°21' E 003°12'0 0.0
2017-Jun-26 20:59N 51°21' E 003°12'0 0.0
2017-Jun-26 20:28N 51°21' E 003°12'0 0.0
2017-Jun-26 19:59N 51°21' E 003°12'0 0.0
2017-Jun-26 19:26N 51°21' E 003°12'0 0.0
2017-Jun-26 18:56N 51°21' E 003°12'0 0.0
2017-Jun-26 18:29N 51°21' E 003°12'0 0.0
2017-Jun-26 17:56N 51°21' E 003°12'0 0.0
2017-Jun-26 17:29N 51°21' E 003°12'0 0.0
2017-Jun-26 16:59N 51°21' E 003°12'0 0.0
2017-Jun-26 16:26N 51°21' E 003°12'0 0.0
2017-Jun-26 15:53N 51°21' E 003°12'0 0.0
2017-Jun-26 15:26N 51°21' E 003°12'0 0.0
2017-Jun-26 14:59N 51°21' E 003°12'0 0.0
2017-Jun-26 14:28N 51°21' E 003°12'0 0.0
2017-Jun-26 13:29N 51°21' E 003°12'0 0.0
2017-Jun-26 12:59N 51°21' E 003°12'0 0.0
2017-Jun-26 12:29N 51°21' E 003°12'0 0.0
2017-Jun-26 11:58N 51°21' E 003°12'0 0.0
2017-Jun-26 11:29N 51°21' E 003°12'0 0.0
2017-Jun-26 10:59N 51°21' E 003°12'0 0.0
2017-Jun-26 10:28N 51°21' E 003°12'0 0.0
2017-Jun-26 09:58N 51°21' E 003°12'0 0.0
2017-Jun-26 09:28N 51°21' E 003°12'0 0.0
2017-Jun-26 08:58N 51°21' E 003°12'0 0.0
2017-Jun-26 08:28N 51°21' E 003°12'0 0.0
2017-Jun-26 07:59N 51°21' E 003°12'0 0.0
2017-Jun-26 07:28N 51°21' E 003°12'0 0.0
2017-Jun-26 06:58N 51°21' E 003°12'0 0.0
2017-Jun-26 06:25N 51°21' E 003°12'0 0.0
2017-Jun-26 05:55N 51°21' E 003°12'0 0.0
2017-Jun-26 05:28N 51°21' E 003°12'0 0.0
2017-Jun-26 04:58N 51°21' E 003°12'0 0.0
2017-Jun-26 04:28N 51°21' E 003°12'0 0.0
2017-Jun-26 03:58N 51°21' E 003°12'0 0.0
2017-Jun-26 03:28N 51°21' E 003°12'0 0.0
2017-Jun-26 02:59N 51°21' E 003°12'0 0.0
2017-Jun-26 02:28N 51°21' E 003°12'0 0.0
2017-Jun-26 01:58N 51°21' E 003°12'0 0.0
2017-Jun-26 01:28N 51°21' E 003°12'0 0.0
2017-Jun-26 00:55N 51°21' E 003°12'0 0.0
2017-Jun-26 00:28N 51°21' E 003°12'0 0.0
2017-Jun-25 23:58N 51°21' E 003°12'0 0.0
2017-Jun-25 23:25N 51°21' E 003°12'0 0.0
2017-Jun-25 22:59N 51°21' E 003°12'0 0.0
2017-Jun-25 22:28N 51°21' E 003°12'0 0.0
2017-Jun-25 21:58N 51°21' E 003°12'0 0.0
2017-Jun-25 21:25N 51°21' E 003°12'0 0.0
2017-Jun-25 20:55N 51°21' E 003°12'0 0.0
2017-Jun-25 20:25N 51°21' E 003°12'0 0.0
2017-Jun-25 19:58N 51°21' E 003°12'0 0.0
2017-Jun-25 19:28N 51°21' E 003°12'0 0.0
2017-Jun-25 18:58N 51°21' E 003°12'0 0.0
2017-Jun-25 18:28N 51°21' E 003°12'0 0.0
2017-Jun-25 17:58N 51°21' E 003°12'0 0.0
2017-Jun-25 17:28N 51°21' E 003°12'0 0.0
2017-Jun-25 16:55N 51°21' E 003°12'0 0.0
2017-Jun-25 16:28N 51°21' E 003°12'0 0.0
2017-Jun-25 15:58N 51°21' E 003°12'0 0.0
2017-Jun-25 15:28N 51°21' E 003°12'0 0.0
2017-Jun-25 14:58N 51°21' E 003°12'0 0.0
2017-Jun-25 13:58N 51°21' E 003°12'0 0.0
2017-Jun-25 13:28N 51°21' E 003°12'0 0.0
2017-Jun-25 12:58N 51°21' E 003°12'0 0.0
2017-Jun-25 12:28N 51°21' E 003°12'0 0.0
2017-Jun-25 11:58N 51°21' E 003°12'0 0.0
2017-Jun-25 11:25N 51°21' E 003°12'0 0.0
2017-Jun-25 10:58N 51°21' E 003°12'0 0.0
2017-Jun-25 10:28N 51°21' E 003°12'0 0.0
2017-Jun-25 09:58N 51°21' E 003°12'0 0.0
2017-Jun-25 09:25N 51°21' E 003°12'0 0.0
2017-Jun-25 08:55N 51°21' E 003°12'0 0.0
2017-Jun-25 08:25N 51°21' E 003°12'0 0.0
2017-Jun-25 07:58N 51°21' E 003°12'0 0.0
2017-Jun-25 07:28N 51°21' E 003°12'0 0.0
2017-Jun-25 06:58N 51°21' E 003°12'0 0.0
2017-Jun-25 06:25N 51°21' E 003°12'0 0.0
2017-Jun-25 05:55N 51°21' E 003°12'0 0.0
2017-Jun-25 05:28N 51°21' E 003°12'0 0.0
2017-Jun-25 04:58N 51°21' E 003°12'0 0.0
2017-Jun-25 04:25N 51°21' E 003°12'0 0.0
2017-Jun-25 03:58N 51°21' E 003°12'0 0.0
2017-Jun-25 03:25N 51°21' E 003°12'0 0.0
2017-Jun-25 02:55N 51°21' E 003°12'0 0.0
2017-Jun-25 02:28N 51°21' E 003°12'0 0.0
2017-Jun-25 01:58N 51°21' E 003°12'0 0.0
2017-Jun-25 01:28N 51°21' E 003°12'0 0.0
2017-Jun-25 00:58N 51°21' E 003°12'0 0.0
2017-Jun-25 00:28N 51°21' E 003°12'0 0.0
2017-Jun-24 23:55N 51°21' E 003°12'0 0.0
2017-Jun-24 23:28N 51°21' E 003°12'0 0.0
2017-Jun-24 22:55N 51°21' E 003°12'0 0.0
2017-Jun-24 22:25N 51°21' E 003°12'0 0.0
2017-Jun-24 21:58N 51°21' E 003°12'0 0.0
2017-Jun-24 21:28N 51°21' E 003°12'0 0.0
2017-Jun-24 20:58N 51°21' E 003°12'0 0.0
2017-Jun-24 20:28N 51°21' E 003°12'0 0.0
2017-Jun-24 19:58N 51°21' E 003°12'0 0.0
2017-Jun-24 19:25N 51°21' E 003°12'0 0.0
2017-Jun-24 18:58N 51°21' E 003°12'0 0.0
2017-Jun-24 18:28N 51°21' E 003°12'0 0.0
2017-Jun-24 17:58N 51°21' E 003°12'0 0.0
2017-Jun-24 17:28N 51°21' E 003°12'0 0.0
2017-Jun-24 16:58N 51°21' E 003°12'0 0.0
2017-Jun-24 16:28N 51°21' E 003°12'0 0.0
2017-Jun-24 15:58N 51°21' E 003°12'0 0.0
2017-Jun-24 15:28N 51°21' E 003°12'0 0.0
2017-Jun-24 14:55N 51°21' E 003°12'0 0.0
2017-Jun-24 13:58N 51°21' E 003°12'0 0.0
2017-Jun-24 13:28N 51°21' E 003°12'0 0.0
2017-Jun-24 12:58N 51°21' E 003°12'1 3.0
2017-Jun-24 12:31N 51°22' E 003°11'713.6
2017-Jun-24 12:01N 51°22' E 003°00'713.9
2017-Jun-24 11:31N 51°22' E 002°49'510.6
2017-Jun-24 11:00N 51°22' E 002°41'5 9.6
2017-Jun-24 10:31N 51°20' E 002°33'0 0.1
2017-Jun-24 09:58N 51°20' E 002°33'0 0.3
2017-Jun-24 09:28N 51°20' E 002°33'0 0.1
2017-Jun-24 08:58N 51°20' E 002°33'0 0.0
2017-Jun-24 08:25N 51°20' E 002°33'0 0.0
2017-Jun-24 07:58N 51°20' E 002°33'0 0.0
2017-Jun-24 07:28N 51°20' E 002°33'0 0.3
2017-Jun-24 06:58N 51°20' E 002°33'0 0.2
2017-Jun-24 06:28N 51°20' E 002°33'0 0.1
2017-Jun-24 05:58N 51°20' E 002°33'1 3.2
2017-Jun-24 05:30N 51°21' E 002°32'5 9.9
2017-Jun-24 05:00N 51°20' E 002°25'611.6
2017-Jun-24 04:30N 51°18' E 002°16'612.0
2017-Jun-24 04:00N 51°19' E 002°06'611.5
2017-Jun-24 03:30N 51°23' E 001°60'611.8
2017-Jun-24 03:00N 51°27' E 001°52'3 5.6
2017-Jun-24 02:30N 51°28' E 001°48'0 0.1
2017-Jun-24 02:00N 51°28' E 001°48'0 0.0
2017-Jun-24 01:30N 51°28' E 001°48'0 0.0
2017-Jun-24 01:00N 51°28' E 001°48'0 0.0
2017-Jun-24 00:30N 51°28' E 001°48'0 0.0
2017-Jun-24 00:00N 51°28' E 001°48'0 0.0
2017-Jun-23 23:30N 51°28' E 001°48'0 0.0
2017-Jun-23 23:00N 51°28' E 001°48'0 0.0
2017-Jun-23 22:30N 51°28' E 001°48'0 0.1
2017-Jun-23 22:00N 51°28' E 001°48'0 0.8
2017-Jun-23 21:30N 51°28' E 001°48'1 2.2
2017-Jun-23 21:00N 51°29' E 001°48'2 4.6
2017-Jun-23 20:30N 51°27' E 001°48'2 4.7
2017-Jun-23 20:00N 51°25' E 001°46'3 5.3
2017-Jun-23 19:30N 51°23' E 001°45'3 5.2
2017-Jun-23 19:00N 51°20' E 001°43'2 4.7
2017-Jun-23 18:30N 51°18' E 001°42'2 4.8
2017-Jun-23 18:00N 51°16' E 001°40'3 5.2
2017-Jun-23 17:30N 51°13' E 001°39'3 5.5
2017-Jun-23 17:00N 51°11' E 001°37'3 6.0
2017-Jun-23 16:30N 51°08' E 001°37'5 9.7
2017-Jun-23 16:00N 51°04' E 001°42'5 9.7
2017-Jun-23 15:30N 50°60' E 001°44'4 7.1
2017-Jun-23 15:00N 50°58' E 001°49'2 0.2
2017-Jun-23 04:55N 50°58' E 001°52'1 1.7
2017-Jun-23 04:30N 50°58' E 001°51'4 7.9
2017-Jun-23 04:00N 50°59' E 001°45'5 9.3
2017-Jun-23 03:30N 51°03' E 001°49'611.4
2017-Jun-23 03:01N 51°05' E 001°57'510.9
2017-Jun-23 02:30N 51°07' E 002°05'610.7
2017-Jun-23 02:00N 51°09' E 002°13'510.4
2017-Jun-23 01:30N 51°11' E 002°21'510.3
2017-Jun-23 01:00N 51°14' E 002°27'510.1
2017-Jun-23 00:30N 51°18' E 002°33'5 9.6
2017-Jun-23 00:00N 51°20' E 002°39'4 8.1
2017-Jun-22 23:30N 51°23' E 002°45'5 9.0
2017-Jun-22 23:00N 51°22' E 002°52'4 8.9
2017-Jun-22 22:30N 51°22' E 002°59'5 9.4
2017-Jun-22 22:00N 51°22' E 003°06'4 7.4
2017-Jun-22 21:30N 51°21' E 003°12'0 0.3
2017-Jun-22 20:56N 51°21' E 003°12'0 0.0
2017-Jun-22 20:29N 51°21' E 003°12'0 0.0
2017-Jun-22 19:59N 51°21' E 003°12'0 0.0
2017-Jun-22 19:29N 51°21' E 003°12'0 0.0
2017-Jun-22 18:59N 51°21' E 003°12'0 0.0
2017-Jun-22 18:29N 51°21' E 003°12'0 0.0
2017-Jun-22 17:56N 51°21' E 003°12'0 0.0
2017-Jun-22 17:29N 51°21' E 003°12'0 0.0
2017-Jun-22 16:59N 51°21' E 003°12'0 0.0
2017-Jun-22 16:29N 51°21' E 003°12'0 0.0
2017-Jun-22 15:59N 51°21' E 003°12'0 0.0
2017-Jun-22 15:29N 51°21' E 003°12'0 0.0
2017-Jun-22 14:59N 51°21' E 003°12'0 0.0
2017-Jun-22 14:29N 51°21' E 003°12'0 0.0
2017-Jun-22 13:29N 51°21' E 003°12'0 0.0
2017-Jun-22 12:59N 51°21' E 003°12'0 0.0
2017-Jun-22 12:29N 51°21' E 003°12'0 0.0
2017-Jun-22 11:59N 51°21' E 003°12'0 0.0
2017-Jun-22 11:29N 51°21' E 003°12'0 0.0
2017-Jun-22 10:59N 51°21' E 003°12'0 0.0
2017-Jun-22 10:29N 51°21' E 003°12'0 0.0
2017-Jun-22 09:59N 51°21' E 003°12'0 0.0
2017-Jun-22 09:29N 51°21' E 003°12'0 0.0
2017-Jun-22 08:59N 51°21' E 003°12'0 0.0
2017-Jun-22 08:29N 51°21' E 003°12'0 0.0
2017-Jun-22 07:56N 51°21' E 003°12'0 0.0
2017-Jun-22 07:29N 51°21' E 003°12'0 0.0
2017-Jun-22 06:59N 51°21' E 003°12'0 0.0
2017-Jun-22 06:29N 51°21' E 003°12'0 0.0
2017-Jun-22 05:59N 51°21' E 003°12'0 0.0
2017-Jun-22 05:29N 51°21' E 003°12'0 0.0
2017-Jun-22 04:59N 51°21' E 003°12'0 0.0
2017-Jun-22 04:29N 51°21' E 003°12'0 0.0
2017-Jun-22 03:59N 51°21' E 003°12'0 0.0
2017-Jun-22 03:29N 51°21' E 003°12'0 0.0
2017-Jun-22 02:59N 51°21' E 003°12'0 0.0
2017-Jun-22 02:29N 51°21' E 003°12'0 0.0
2017-Jun-22 01:56N 51°21' E 003°12'0 0.0
2017-Jun-22 01:29N 51°21' E 003°12'0 0.0
2017-Jun-22 00:59N 51°21' E 003°12'0 0.0
2017-Jun-22 00:29N 51°21' E 003°12'0 0.0
2017-Jun-21 23:59N 51°21' E 003°12'0 0.0
2017-Jun-21 23:29N 51°21' E 003°12'0 0.0
2017-Jun-21 22:59N 51°21' E 003°12'0 0.0
2017-Jun-21 22:29N 51°21' E 003°12'0 0.0
2017-Jun-21 22:00N 51°21' E 003°12'2 3.4
2017-Jun-21 21:31N 51°22' E 003°10'713.3
2017-Jun-21 21:00N 51°22' E 002°59'612.5
2017-Jun-21 20:31N 51°22' E 002°49'5 9.1
2017-Jun-21 20:01N 51°23' E 002°42'611.9
2017-Jun-21 19:31N 51°29' E 002°41'712.8
2017-Jun-21 18:59N 51°35' E 002°40'5148.0
2017-Jun-21 17:56N 52°04' E 003°48'0 0.0
2017-Jun-21 17:30N 52°04' E 003°48'0 0.0
2017-Jun-21 17:00N 52°04' E 003°48'0 0.0
2017-Jun-21 16:30N 52°04' E 003°48'0 0.0
2017-Jun-21 16:00N 52°04' E 003°48'0 0.0
2017-Jun-21 15:30N 52°04' E 003°48'0 0.0
2017-Jun-21 15:00N 52°04' E 003°48'0 0.0
2017-Jun-21 14:30N 52°04' E 003°48'2 1.9
2017-Jun-21 13:31N 52°05' E 003°51'510.6
2017-Jun-21 13:00N 52°06' E 003°59'510.3
2017-Jun-21 12:30N 52°07' E 004°07'5 9.4
2017-Jun-21 12:01N 52°07' E 004°15'1 2.4
2017-Jun-21 11:30N 52°06' E 004°16'0 0.0
2017-Jun-21 11:00N 52°06' E 004°16'0 0.0
2017-Jun-21 10:30N 52°06' E 004°16'0 0.0
2017-Jun-21 10:00N 52°06' E 004°16'0 0.0
2017-Jun-21 09:30N 52°06' E 004°16'0 0.0
2017-Jun-21 09:00N 52°06' E 004°16'0 0.0
2017-Jun-21 08:30N 52°06' E 004°16'0 0.0
2017-Jun-21 08:00N 52°06' E 004°16'0 0.0
2017-Jun-21 07:30N 52°06' E 004°16'0 0.0
2017-Jun-21 07:00N 52°06' E 004°16'0 0.0
2017-Jun-21 06:30N 52°06' E 004°16'0 0.0
2017-Jun-21 06:00N 52°06' E 004°16'0 0.0
2017-Jun-21 05:30N 52°06' E 004°16'0 0.0
2017-Jun-21 05:00N 52°06' E 004°16'0 0.0
2017-Jun-21 04:30N 52°06' E 004°16'0 0.0
2017-Jun-21 04:00N 52°06' E 004°16'0 0.0
2017-Jun-21 03:30N 52°06' E 004°16'0 0.0
2017-Jun-21 03:00N 52°06' E 004°16'0 0.0
2017-Jun-21 02:30N 52°06' E 004°16'0 0.0
2017-Jun-21 02:00N 52°06' E 004°16'0 0.0
2017-Jun-21 01:30N 52°06' E 004°16'0 0.0
2017-Jun-21 01:00N 52°06' E 004°16'0 0.0
2017-Jun-21 00:30N 52°06' E 004°16'0 0.0
2017-Jun-21 00:00N 52°06' E 004°16'0 0.0
2017-Jun-20 23:30N 52°06' E 004°16'0 0.2
2017-Jun-20 23:00N 52°06' E 004°16'2 3.3
2017-Jun-20 22:31N 52°07' E 004°14'611.2
2017-Jun-20 22:00N 52°05' E 004°06'612.9
2017-Jun-20 21:30N 52°01' E 003°57'611.0
2017-Jun-20 21:00N 51°60' E 003°49'5 9.2
2017-Jun-20 20:30N 51°58' E 003°41'1631.5
2017-Jun-20 20:00N 51°53' E 003°17'0 0.0
2017-Jun-20 19:30N 51°53' E 003°17'1 1.1
2017-Jun-20 18:59N 51°53' E 003°16'510.7
2017-Jun-20 18:30N 51°51' E 003°08'710.4
2017-Jun-20 17:50N 51°49' E 002°57'510.3
2017-Jun-20 17:20N 51°48' E 002°49'310.2
2017-Jun-20 17:00N 51°47' E 002°44'5 9.5
2017-Jun-20 16:30N 51°42' E 002°41'510.4
2017-Jun-20 16:01N 51°38' E 002°44'510.7
2017-Jun-20 15:30N 51°32' E 002°43'510.7
2017-Jun-20 15:00N 51°27' E 002°43'5 9.5
2017-Jun-20 14:31N 51°22' E 002°44'1212.2
2017-Jun-20 13:30N 51°22' E 003°04'510.8
2017-Jun-20 13:00N 51°21' E 003°12'0 0.7
2017-Jun-20 12:29N 51°21' E 003°12'0 0.0
2017-Jun-20 11:58N 51°21' E 003°12'0 0.0
2017-Jun-20 11:29N 51°21' E 003°12'0 0.0
2017-Jun-20 10:59N 51°21' E 003°12'0 0.0
2017-Jun-20 10:28N 51°21' E 003°12'0 0.0
2017-Jun-20 09:58N 51°21' E 003°12'0 0.0
2017-Jun-20 09:29N 51°21' E 003°12'0 0.0
2017-Jun-20 08:59N 51°21' E 003°12'0 0.0
2017-Jun-20 08:28N 51°21' E 003°12'0 0.0
2017-Jun-20 07:59N 51°21' E 003°12'0 0.0
2017-Jun-20 07:29N 51°21' E 003°12'0 0.0
2017-Jun-20 06:59N 51°21' E 003°12'0 0.0
2017-Jun-20 06:29N 51°21' E 003°12'0 0.0
2017-Jun-20 05:59N 51°21' E 003°12'0 0.0
2017-Jun-20 05:28N 51°21' E 003°12'0 0.0
2017-Jun-20 04:59N 51°21' E 003°12'0 0.0
2017-Jun-20 04:28N 51°21' E 003°12'0 0.0
2017-Jun-20 03:59N 51°21' E 003°12'0 0.0
2017-Jun-20 03:28N 51°21' E 003°12'0 0.0
2017-Jun-20 02:59N 51°21' E 003°12'0 0.0
2017-Jun-20 02:28N 51°21' E 003°12'0 0.0
2017-Jun-20 01:58N 51°21' E 003°12'0 0.0
2017-Jun-20 01:28N 51°21' E 003°12'0 0.0
2017-Jun-20 00:59N 51°21' E 003°12'0 0.0
2017-Jun-20 00:28N 51°21' E 003°12'0 0.0
2017-Jun-19 23:58N 51°21' E 003°12'0 0.0
2017-Jun-19 23:29N 51°21' E 003°12'0 0.0
2017-Jun-19 22:59N 51°21' E 003°12'0 0.0
2017-Jun-19 22:28N 51°21' E 003°12'0 0.0
2017-Jun-19 21:58N 51°21' E 003°12'0 0.0
2017-Jun-19 21:28N 51°21' E 003°12'0 0.0
2017-Jun-19 20:58N 51°21' E 003°12'0 0.0
2017-Jun-19 20:28N 51°21' E 003°12'0 0.0
2017-Jun-19 19:58N 51°21' E 003°12'0 0.0
2017-Jun-19 19:29N 51°21' E 003°12'0 0.0
2017-Jun-19 18:58N 51°21' E 003°12'0 0.0
2017-Jun-19 18:28N 51°21' E 003°12'0 0.0
2017-Jun-19 17:58N 51°21' E 003°12'0 0.0
2017-Jun-19 17:28N 51°21' E 003°12'0 0.0
2017-Jun-19 16:58N 51°21' E 003°12'0 0.0
2017-Jun-19 16:28N 51°21' E 003°12'0 0.0
2017-Jun-19 15:58N 51°21' E 003°12'0 0.0
2017-Jun-19 15:29N 51°21' E 003°12'0 0.0
2017-Jun-19 14:58N 51°21' E 003°12'0 0.0
2017-Jun-19 13:58N 51°21' E 003°12'0 0.0
2017-Jun-19 13:28N 51°21' E 003°12'0 0.0
2017-Jun-19 12:58N 51°21' E 003°12'0 0.0
2017-Jun-19 12:28N 51°21' E 003°12'0 0.0
2017-Jun-19 11:58N 51°21' E 003°12'0 0.0
2017-Jun-19 11:28N 51°21' E 003°12'0 0.0
2017-Jun-19 10:58N 51°21' E 003°12'0 0.0
2017-Jun-19 10:28N 51°21' E 003°12'0 0.0
2017-Jun-19 09:58N 51°21' E 003°12'0 0.0
2017-Jun-19 09:28N 51°21' E 003°12'  
Track history (hours):
 
Tides and Currents Weather Stations Pressure Air Temp Water Temp Dewpoint Dewpoint Depression Visibility Wind Speed Wind Dir Waves Ship Positions

Sikinos

Last reported at 2017-Jun-29 09:00 UTC. Time now 2017-Jun-29 09:08 UTC.
Position N 51°29' E 000°27'.

Length 90 m; draft 5.8 m.

Type: Ship (hazmat cat A). MMSI: 256462000.

Date/timePositionNaut miles runAvg speedWind from/ knotsBaromVisibWave heightAir tempDewpointWater temp
2017-Jun-29 09:00N 51°29' E 000°27'4 8.9
2017-Jun-29 08:30N 51°30' E 000°34'5 9.3
2017-Jun-29 08:00N 51°30' E 000°41'5 9.3
2017-Jun-29 07:30N 51°29' E 000°49'5 9.2
2017-Jun-29 07:00N 51°29' E 000°56'5 9.7
2017-Jun-29 06:30N 51°30' E 001°04'5 9.8
2017-Jun-29 06:00N 51°29' E 001°12'510.3
2017-Jun-29 05:30N 51°29' E 001°20'510.8
2017-Jun-29 05:01N 51°27' E 001°28'2 4.0
2017-Jun-29 04:30N 51°26' E 001°27'0 0.1
2017-Jun-29 04:00N 51°26' E 001°27'0 0.1
2017-Jun-29 03:30N 51°26' E 001°27'0 0.1
2017-Jun-29 03:00N 51°25' E 001°27'0 0.0
2017-Jun-29 02:30N 51°25' E 001°27'0 0.0
2017-Jun-29 02:00N 51°25' E 001°27'0 0.1
2017-Jun-29 01:30N 51°25' E 001°27'0 0.0
2017-Jun-29 01:00N 51°25' E 001°27'0 0.1
2017-Jun-29 00:30N 51°25' E 001°27'0 0.1
2017-Jun-29 00:00N 51°25' E 001°27'0 0.0
2017-Jun-28 23:30N 51°25' E 001°27'0 0.0
2017-Jun-28 23:00N 51°25' E 001°27'0 0.0
2017-Jun-28 22:30N 51°25' E 001°27'0 0.0
2017-Jun-28 22:00N 51°25' E 001°27'0 0.1
2017-Jun-28 21:31N 51°25' E 001°27'4 8.3
2017-Jun-28 21:00N 51°27' E 001°33'510.8
2017-Jun-28 20:30N 51°29' E 001°42'611.2
2017-Jun-28 20:00N 51°29' E 001°51'610.9
2017-Jun-28 19:30N 51°27' E 001°59'611.7
2017-Jun-28 19:01N 51°24' E 002°06'611.6
2017-Jun-28 18:30N 51°21' E 002°15'510.0
2017-Jun-28 17:59N 51°22' E 002°23'510.1
2017-Jun-28 17:30N 51°23' E 002°31'510.4
2017-Jun-28 17:00N 51°23' E 002°39'4 8.9
2017-Jun-28 16:30N 51°22' E 002°46'5 9.6
2017-Jun-28 16:00N 51°22' E 002°53'5 9.8
2017-Jun-28 15:30N 51°22' E 003°01'5 9.4
2017-Jun-28 15:00N 51°22' E 003°09'2 2.3
2017-Jun-28 13:59N 51°21' E 003°12'0 0.0
2017-Jun-28 13:29N 51°21' E 003°12'0 0.0
2017-Jun-28 12:59N 51°21' E 003°12'0 0.0
2017-Jun-28 12:29N 51°21' E 003°12'0 0.0
2017-Jun-28 11:59N 51°21' E 003°12'0 0.0
2017-Jun-28 11:26N 51°21' E 003°12'0 0.0
2017-Jun-28 10:59N 51°21' E 003°12'0 0.0
2017-Jun-28 10:29N 51°21' E 003°12'0 0.0
2017-Jun-28 09:56N 51°21' E 003°12'0 0.0
2017-Jun-28 09:29N 51°21' E 003°12'0 0.0
2017-Jun-28 08:59N 51°21' E 003°12'0 0.0
2017-Jun-28 08:29N 51°21' E 003°12'0 0.0
2017-Jun-28 07:59N 51°21' E 003°12'0 0.0
2017-Jun-28 07:29N 51°21' E 003°12'0 0.0
2017-Jun-28 06:59N 51°21' E 003°12'0 0.0
2017-Jun-28 06:29N 51°21' E 003°12'0 0.0
2017-Jun-28 05:59N 51°21' E 003°12'0 0.0
2017-Jun-28 05:29N 51°21' E 003°12'0 0.0
2017-Jun-28 04:59N 51°21' E 003°12'0 0.0
2017-Jun-28 04:29N 51°21' E 003°12'0 0.0
2017-Jun-28 03:59N 51°21' E 003°12'0 0.0
2017-Jun-28 03:29N 51°21' E 003°12'0 0.0
2017-Jun-28 02:56N 51°21' E 003°12'0 0.0
2017-Jun-28 02:29N 51°21' E 003°12'0 0.0
2017-Jun-28 01:59N 51°21' E 003°12'0 0.0
2017-Jun-28 01:26N 51°21' E 003°12'0 0.0
2017-Jun-28 00:59N 51°21' E 003°12'0 0.0
2017-Jun-28 00:26N 51°21' E 003°12'0 0.0
2017-Jun-27 23:56N 51°21' E 003°12'0 0.0
2017-Jun-27 23:29N 51°21' E 003°12'0 0.0
2017-Jun-27 22:59N 51°21' E 003°12'0 0.0
2017-Jun-27 22:29N 51°21' E 003°12'0 0.0
2017-Jun-27 21:56N 51°21' E 003°12'0 0.0
2017-Jun-27 21:29N 51°21' E 003°12'0 0.0
2017-Jun-27 20:56N 51°21' E 003°12'0 0.0
2017-Jun-27 20:26N 51°21' E 003°12'0 0.0
2017-Jun-27 19:59N 51°21' E 003°12'0 0.0
2017-Jun-27 19:29N 51°21' E 003°12'0 0.0
2017-Jun-27 18:59N 51°21' E 003°12'0 0.0
2017-Jun-27 18:29N 51°21' E 003°12'0 0.0
2017-Jun-27 17:59N 51°21' E 003°12'0 0.0
2017-Jun-27 17:29N 51°21' E 003°12'0 0.0
2017-Jun-27 16:56N 51°21' E 003°12'0 0.0
2017-Jun-27 16:29N 51°21' E 003°12'0 0.0
2017-Jun-27 15:59N 51°21' E 003°12'0 0.0
2017-Jun-27 15:29N 51°21' E 003°12'0 0.0
2017-Jun-27 14:59N 51°21' E 003°12'0 0.0
2017-Jun-27 13:59N 51°21' E 003°12'0 0.0
2017-Jun-27 13:29N 51°21' E 003°12'0 0.0
2017-Jun-27 12:59N 51°21' E 003°12'0 0.0
2017-Jun-27 12:29N 51°21' E 003°12'0 0.0
2017-Jun-27 11:59N 51°21' E 003°12'0 0.0
2017-Jun-27 11:29N 51°21' E 003°12'0 0.0
2017-Jun-27 10:59N 51°21' E 003°12'0 0.0
2017-Jun-27 10:29N 51°21' E 003°12'0 0.0
2017-Jun-27 09:59N 51°21' E 003°12'0 0.0
2017-Jun-27 09:29N 51°21' E 003°12'0 0.0
2017-Jun-27 08:59N 51°21' E 003°12'0 0.0
2017-Jun-27 08:29N 51°21' E 003°12'0 0.0
2017-Jun-27 07:59N 51°21' E 003°12'0 0.0
2017-Jun-27 07:29N 51°21' E 003°12'0 0.0
2017-Jun-27 06:59N 51°21' E 003°12'0 0.0
2017-Jun-27 06:29N 51°21' E 003°12'0 0.0
2017-Jun-27 05:56N 51°21' E 003°12'0 0.0
2017-Jun-27 05:29N 51°21' E 003°12'0 0.0
2017-Jun-27 04:59N 51°21' E 003°12'0 0.0
2017-Jun-27 04:29N 51°21' E 003°12'0 0.0
2017-Jun-27 03:59N 51°21' E 003°12'0 0.0
2017-Jun-27 03:29N 51°21' E 003°12'0 0.0
2017-Jun-27 02:59N 51°21' E 003°12'0 0.0
2017-Jun-27 02:29N 51°21' E 003°12'0 0.0
2017-Jun-27 01:59N 51°21' E 003°12'0 0.0
2017-Jun-27 01:29N 51°21' E 003°12'0 0.0
2017-Jun-27 00:59N 51°21' E 003°12'0 0.0
2017-Jun-27 00:29N 51°21' E 003°12'0 0.0
2017-Jun-26 23:59N 51°21' E 003°12'0 0.0
2017-Jun-26 23:29N 51°21' E 003°12'0 0.0
2017-Jun-26 22:59N 51°21' E 003°12'0 0.0
2017-Jun-26 22:28N 51°21' E 003°12'0 0.0
2017-Jun-26 21:58N 51°21' E 003°12'0 0.0
2017-Jun-26 21:29N 51°21' E 003°12'0 0.0
2017-Jun-26 20:59N 51°21' E 003°12'0 0.0
2017-Jun-26 20:28N 51°21' E 003°12'0 0.0
2017-Jun-26 19:59N 51°21' E 003°12'0 0.0
2017-Jun-26 19:26N 51°21' E 003°12'0 0.0
2017-Jun-26 18:56N 51°21' E 003°12'0 0.0
2017-Jun-26 18:29N 51°21' E 003°12'0 0.0
2017-Jun-26 17:56N 51°21' E 003°12'0 0.0
2017-Jun-26 17:29N 51°21' E 003°12'0 0.0
2017-Jun-26 16:59N 51°21' E 003°12'0 0.0
2017-Jun-26 16:26N 51°21' E 003°12'0 0.0
2017-Jun-26 15:53N 51°21' E 003°12'0 0.0
2017-Jun-26 15:26N 51°21' E 003°12'0 0.0
2017-Jun-26 14:59N 51°21' E 003°12'0 0.0
2017-Jun-26 14:28N 51°21' E 003°12'0 0.0
2017-Jun-26 13:29N 51°21' E 003°12'0 0.0
2017-Jun-26 12:59N 51°21' E 003°12'0 0.0
2017-Jun-26 12:29N 51°21' E 003°12'0 0.0
2017-Jun-26 11:58N 51°21' E 003°12'0 0.0
2017-Jun-26 11:29N 51°21' E 003°12'0 0.0
2017-Jun-26 10:59N 51°21' E 003°12'0 0.0
2017-Jun-26 10:28N 51°21' E 003°12'0 0.0
2017-Jun-26 09:58N 51°21' E 003°12'0 0.0
2017-Jun-26 09:28N 51°21' E 003°12'0 0.0
2017-Jun-26 08:58N 51°21' E 003°12'0 0.0
2017-Jun-26 08:28N 51°21' E 003°12'0 0.0
2017-Jun-26 07:59N 51°21' E 003°12'0 0.0
2017-Jun-26 07:28N 51°21' E 003°12'0 0.0
2017-Jun-26 06:58N 51°21' E 003°12'0 0.0
2017-Jun-26 06:25N 51°21' E 003°12'0 0.0
2017-Jun-26 05:55N 51°21' E 003°12'0 0.0
2017-Jun-26 05:28N 51°21' E 003°12'0 0.0
2017-Jun-26 04:58N 51°21' E 003°12'0 0.0
2017-Jun-26 04:28N 51°21' E 003°12'0 0.0
2017-Jun-26 03:58N 51°21' E 003°12'0 0.0
2017-Jun-26 03:28N 51°21' E 003°12'0 0.0
2017-Jun-26 02:59N 51°21' E 003°12'0 0.0
2017-Jun-26 02:28N 51°21' E 003°12'0 0.0
2017-Jun-26 01:58N 51°21' E 003°12'0 0.0
2017-Jun-26 01:28N 51°21' E 003°12'0 0.0
2017-Jun-26 00:55N 51°21' E 003°12'0 0.0
2017-Jun-26 00:28N 51°21' E 003°12'0 0.0
2017-Jun-25 23:58N 51°21' E 003°12'0 0.0
2017-Jun-25 23:25N 51°21' E 003°12'0 0.0
2017-Jun-25 22:59N 51°21' E 003°12'0 0.0
2017-Jun-25 22:28N 51°21' E 003°12'0 0.0
2017-Jun-25 21:58N 51°21' E 003°12'0 0.0
2017-Jun-25 21:25N 51°21' E 003°12'0 0.0
2017-Jun-25 20:55N 51°21' E 003°12'0 0.0
2017-Jun-25 20:25N 51°21' E 003°12'0 0.0
2017-Jun-25 19:58N 51°21' E 003°12'0 0.0
2017-Jun-25 19:28N 51°21' E 003°12'0 0.0
2017-Jun-25 18:58N 51°21' E 003°12'0 0.0
2017-Jun-25 18:28N 51°21' E 003°12'0 0.0
2017-Jun-25 17:58N 51°21' E 003°12'0 0.0
2017-Jun-25 17:28N 51°21' E 003°12'0 0.0
2017-Jun-25 16:55N 51°21' E 003°12'0 0.0
2017-Jun-25 16:28N 51°21' E 003°12'0 0.0
2017-Jun-25 15:58N 51°21' E 003°12'0 0.0
2017-Jun-25 15:28N 51°21' E 003°12'0 0.0
2017-Jun-25 14:58N 51°21' E 003°12'0 0.0
2017-Jun-25 13:58N 51°21' E 003°12'0 0.0
2017-Jun-25 13:28N 51°21' E 003°12'0 0.0
2017-Jun-25 12:58N 51°21' E 003°12'0 0.0
2017-Jun-25 12:28N 51°21' E 003°12'0 0.0
2017-Jun-25 11:58N 51°21' E 003°12'0 0.0
2017-Jun-25 11:25N 51°21' E 003°12'0 0.0
2017-Jun-25 10:58N 51°21' E 003°12'0 0.0
2017-Jun-25 10:28N 51°21' E 003°12'0 0.0
2017-Jun-25 09:58N 51°21' E 003°12'0 0.0
2017-Jun-25 09:25N 51°21' E 003°12'0 0.0
2017-Jun-25 08:55N 51°21' E 003°12'0 0.0
2017-Jun-25 08:25N 51°21' E 003°12'0 0.0
2017-Jun-25 07:58N 51°21' E 003°12'0 0.0
2017-Jun-25 07:28N 51°21' E 003°12'0 0.0
2017-Jun-25 06:58N 51°21' E 003°12'0 0.0
2017-Jun-25 06:25N 51°21' E 003°12'0 0.0
2017-Jun-25 05:55N 51°21' E 003°12'0 0.0
2017-Jun-25 05:28N 51°21' E 003°12'0 0.0
2017-Jun-25 04:58N 51°21' E 003°12'0 0.0
2017-Jun-25 04:25N 51°21' E 003°12'0 0.0
2017-Jun-25 03:58N 51°21' E 003°12'0 0.0
2017-Jun-25 03:25N 51°21' E 003°12'0 0.0
2017-Jun-25 02:55N 51°21' E 003°12'0 0.0
2017-Jun-25 02:28N 51°21' E 003°12'0 0.0
2017-Jun-25 01:58N 51°21' E 003°12'0 0.0
2017-Jun-25 01:28N 51°21' E 003°12'0 0.0
2017-Jun-25 00:58N 51°21' E 003°12'0 0.0
2017-Jun-25 00:28N 51°21' E 003°12'0 0.0
2017-Jun-24 23:55N 51°21' E 003°12'0 0.0
2017-Jun-24 23:28N 51°21' E 003°12'0 0.0
2017-Jun-24 22:55N 51°21' E 003°12'0 0.0
2017-Jun-24 22:25N 51°21' E 003°12'0 0.0
2017-Jun-24 21:58N 51°21' E 003°12'0 0.0
2017-Jun-24 21:28N 51°21' E 003°12'0 0.0
2017-Jun-24 20:58N 51°21' E 003°12'0 0.0
2017-Jun-24 20:28N 51°21' E 003°12'0 0.0
2017-Jun-24 19:58N 51°21' E 003°12'0 0.0
2017-Jun-24 19:25N 51°21' E 003°12'0 0.0
2017-Jun-24 18:58N 51°21' E 003°12'0 0.0
2017-Jun-24 18:28N 51°21' E 003°12'0 0.0
2017-Jun-24 17:58N 51°21' E 003°12'0 0.0
2017-Jun-24 17:28N 51°21' E 003°12'0 0.0
2017-Jun-24 16:58N 51°21' E 003°12'0 0.0
2017-Jun-24 16:28N 51°21' E 003°12'0 0.0
2017-Jun-24 15:58N 51°21' E 003°12'0 0.0
2017-Jun-24 15:28N 51°21' E 003°12'0 0.0
2017-Jun-24 14:55N 51°21' E 003°12'0 0.0
2017-Jun-24 13:58N 51°21' E 003°12'0 0.0
2017-Jun-24 13:28N 51°21' E 003°12'0 0.0
2017-Jun-24 12:58N 51°21' E 003°12'1 3.0
2017-Jun-24 12:31N 51°22' E 003°11'713.6
2017-Jun-24 12:01N 51°22' E 003°00'713.9
2017-Jun-24 11:31N 51°22' E 002°49'510.6
2017-Jun-24 11:00N 51°22' E 002°41'5 9.6
2017-Jun-24 10:31N 51°20' E 002°33'0 0.1
2017-Jun-24 09:58N 51°20' E 002°33'0 0.3
2017-Jun-24 09:28N 51°20' E 002°33'0 0.1
2017-Jun-24 08:58N 51°20' E 002°33'0 0.0
2017-Jun-24 08:25N 51°20' E 002°33'0 0.0
2017-Jun-24 07:58N 51°20' E 002°33'0 0.0
2017-Jun-24 07:28N 51°20' E 002°33'0 0.3
2017-Jun-24 06:58N 51°20' E 002°33'0 0.2
2017-Jun-24 06:28N 51°20' E 002°33'0 0.1
2017-Jun-24 05:58N 51°20' E 002°33'1 3.2
2017-Jun-24 05:30N 51°21' E 002°32'5 9.9
2017-Jun-24 05:00N 51°20' E 002°25'611.6
2017-Jun-24 04:30N 51°18' E 002°16'612.0
2017-Jun-24 04:00N 51°19' E 002°06'611.5
2017-Jun-24 03:30N 51°23' E 001°60'611.8
2017-Jun-24 03:00N 51°27' E 001°52'3 5.6
2017-Jun-24 02:30N 51°28' E 001°48'0 0.1
2017-Jun-24 02:00N 51°28' E 001°48'0 0.0
2017-Jun-24 01:30N 51°28' E 001°48'0 0.0
2017-Jun-24 01:00N 51°28' E 001°48'0 0.0
2017-Jun-24 00:30N 51°28' E 001°48'0 0.0
2017-Jun-24 00:00N 51°28' E 001°48'0 0.0
2017-Jun-23 23:30N 51°28' E 001°48'0 0.0
2017-Jun-23 23:00N 51°28' E 001°48'0 0.0
2017-Jun-23 22:30N 51°28' E 001°48'0 0.1
2017-Jun-23 22:00N 51°28' E 001°48'0 0.8
2017-Jun-23 21:30N 51°28' E 001°48'1 2.2
2017-Jun-23 21:00N 51°29' E 001°48'2 4.6
2017-Jun-23 20:30N 51°27' E 001°48'2 4.7
2017-Jun-23 20:00N 51°25' E 001°46'3 5.3
2017-Jun-23 19:30N 51°23' E 001°45'3 5.2
2017-Jun-23 19:00N 51°20' E 001°43'2 4.7
2017-Jun-23 18:30N 51°18' E 001°42'2 4.8
2017-Jun-23 18:00N 51°16' E 001°40'3 5.2
2017-Jun-23 17:30N 51°13' E 001°39'3 5.5
2017-Jun-23 17:00N 51°11' E 001°37'3 6.0
2017-Jun-23 16:30N 51°08' E 001°37'5 9.7
2017-Jun-23 16:00N 51°04' E 001°42'5 9.7
2017-Jun-23 15:30N 50°60' E 001°44'4 7.1
2017-Jun-23 15:00N 50°58' E 001°49'2 0.2
2017-Jun-23 04:55N 50°58' E 001°52'1 1.7
2017-Jun-23 04:30N 50°58' E 001°51'4 7.9
2017-Jun-23 04:00N 50°59' E 001°45'5 9.3
2017-Jun-23 03:30N 51°03' E 001°49'611.4
2017-Jun-23 03:01N 51°05' E 001°57'510.9
2017-Jun-23 02:30N 51°07' E 002°05'610.7
2017-Jun-23 02:00N 51°09' E 002°13'510.4
2017-Jun-23 01:30N 51°11' E 002°21'510.3
2017-Jun-23 01:00N 51°14' E 002°27'510.1
2017-Jun-23 00:30N 51°18' E 002°33'5 9.6
2017-Jun-23 00:00N 51°20' E 002°39'4 8.1
2017-Jun-22 23:30N 51°23' E 002°45'5 9.0
2017-Jun-22 23:00N 51°22' E 002°52'4 8.9
2017-Jun-22 22:30N 51°22' E 002°59'5 9.4
2017-Jun-22 22:00N 51°22' E 003°06'4 7.4
2017-Jun-22 21:30N 51°21' E 003°12'0 0.3
2017-Jun-22 20:56N 51°21' E 003°12'0 0.0
2017-Jun-22 20:29N 51°21' E 003°12'0 0.0
2017-Jun-22 19:59N 51°21' E 003°12'0 0.0
2017-Jun-22 19:29N 51°21' E 003°12'0 0.0
2017-Jun-22 18:59N 51°21' E 003°12'0 0.0
2017-Jun-22 18:29N 51°21' E 003°12'0 0.0
2017-Jun-22 17:56N 51°21' E 003°12'0 0.0
2017-Jun-22 17:29N 51°21' E 003°12'0 0.0
2017-Jun-22 16:59N 51°21' E 003°12'0 0.0
2017-Jun-22 16:29N 51°21' E 003°12'0 0.0
2017-Jun-22 15:59N 51°21' E 003°12'0 0.0
2017-Jun-22 15:29N 51°21' E 003°12'0 0.0
2017-Jun-22 14:59N 51°21' E 003°12'0 0.0
2017-Jun-22 14:29N 51°21' E 003°12'0 0.0
2017-Jun-22 13:29N 51°21' E 003°12'0 0.0
2017-Jun-22 12:59N 51°21' E 003°12'0 0.0
2017-Jun-22 12:29N 51°21' E 003°12'0 0.0
2017-Jun-22 11:59N 51°21' E 003°12'0 0.0
2017-Jun-22 11:29N 51°21' E 003°12'0 0.0
2017-Jun-22 10:59N 51°21' E 003°12'0 0.0
2017-Jun-22 10:29N 51°21' E 003°12'0 0.0
2017-Jun-22 09:59N 51°21' E 003°12'0 0.0
2017-Jun-22 09:29N 51°21' E 003°12'0 0.0
2017-Jun-22 08:59N 51°21' E 003°12'0 0.0
2017-Jun-22 08:29N 51°21' E 003°12'0 0.0
2017-Jun-22 07:56N 51°21' E 003°12'0 0.0
2017-Jun-22 07:29N 51°21' E 003°12'0 0.0
2017-Jun-22 06:59N 51°21' E 003°12'0 0.0
2017-Jun-22 06:29N 51°21' E 003°12'0 0.0
2017-Jun-22 05:59N 51°21' E 003°12'0 0.0
2017-Jun-22 05:29N 51°21' E 003°12'0 0.0
2017-Jun-22 04:59N 51°21' E 003°12'0 0.0
2017-Jun-22 04:29N 51°21' E 003°12'0 0.0
2017-Jun-22 03:59N 51°21' E 003°12'0 0.0
2017-Jun-22 03:29N 51°21' E 003°12'0 0.0
2017-Jun-22 02:59N 51°21' E 003°12'0 0.0
2017-Jun-22 02:29N 51°21' E 003°12'0 0.0
2017-Jun-22 01:56N 51°21' E 003°12'0 0.0
2017-Jun-22 01:29N 51°21' E 003°12'0 0.0
2017-Jun-22 00:59N 51°21' E 003°12'0 0.0
2017-Jun-22 00:29N 51°21' E 003°12'0 0.0
2017-Jun-21 23:59N 51°21' E 003°12'0 0.0
2017-Jun-21 23:29N 51°21' E 003°12'0 0.0
2017-Jun-21 22:59N 51°21' E 003°12'0 0.0
2017-Jun-21 22:29N 51°21' E 003°12'0 0.0
2017-Jun-21 22:00N 51°21' E 003°12'2 3.4
2017-Jun-21 21:31N 51°22' E 003°10'713.3
2017-Jun-21 21:00N 51°22' E 002°59'612.5
2017-Jun-21 20:31N 51°22' E 002°49'5 9.1
2017-Jun-21 20:01N 51°23' E 002°42'611.9
2017-Jun-21 19:31N 51°29' E 002°41'712.8
2017-Jun-21 18:59N 51°35' E 002°40'5148.0
2017-Jun-21 17:56N 52°04' E 003°48'0 0.0
2017-Jun-21 17:30N 52°04' E 003°48'0 0.0
2017-Jun-21 17:00N 52°04' E 003°48'0 0.0
2017-Jun-21 16:30N 52°04' E 003°48'0 0.0
2017-Jun-21 16:00N 52°04' E 003°48'0 0.0
2017-Jun-21 15:30N 52°04' E 003°48'0 0.0
2017-Jun-21 15:00N 52°04' E 003°48'0 0.0
2017-Jun-21 14:30N 52°04' E 003°48'2 1.9
2017-Jun-21 13:31N 52°05' E 003°51'510.6
2017-Jun-21 13:00N 52°06' E 003°59'510.3
2017-Jun-21 12:30N 52°07' E 004°07'5 9.4
2017-Jun-21 12:01N 52°07' E 004°15'1 2.4
2017-Jun-21 11:30N 52°06' E 004°16'0 0.0
2017-Jun-21 11:00N 52°06' E 004°16'0 0.0
2017-Jun-21 10:30N 52°06' E 004°16'0 0.0
2017-Jun-21 10:00N 52°06' E 004°16'0 0.0
2017-Jun-21 09:30N 52°06' E 004°16'0 0.0
2017-Jun-21 09:00N 52°06' E 004°16'0 0.0
2017-Jun-21 08:30N 52°06' E 004°16'0 0.0
2017-Jun-21 08:00N 52°06' E 004°16'0 0.0
2017-Jun-21 07:30N 52°06' E 004°16'0 0.0
2017-Jun-21 07:00N 52°06' E 004°16'0 0.0
2017-Jun-21 06:30N 52°06' E 004°16'0 0.0
2017-Jun-21 06:00N 52°06' E 004°16'0 0.0
2017-Jun-21 05:30N 52°06' E 004°16'0 0.0
2017-Jun-21 05:00N 52°06' E 004°16'0 0.0
2017-Jun-21 04:30N 52°06' E 004°16'0 0.0
2017-Jun-21 04:00N 52°06' E 004°16'0 0.0
2017-Jun-21 03:30N 52°06' E 004°16'0 0.0
2017-Jun-21 03:00N 52°06' E 004°16'0 0.0
2017-Jun-21 02:30N 52°06' E 004°16'0 0.0
2017-Jun-21 02:00N 52°06' E 004°16'0 0.0
2017-Jun-21 01:30N 52°06' E 004°16'0 0.0
2017-Jun-21 01:00N 52°06' E 004°16'0 0.0
2017-Jun-21 00:30N 52°06' E 004°16'0 0.0
2017-Jun-21 00:00N 52°06' E 004°16'0 0.0
2017-Jun-20 23:30N 52°06' E 004°16'0 0.2
2017-Jun-20 23:00N 52°06' E 004°16'2 3.3
2017-Jun-20 22:31N 52°07' E 004°14'611.2
2017-Jun-20 22:00N 52°05' E 004°06'612.9
2017-Jun-20 21:30N 52°01' E 003°57'611.0
2017-Jun-20 21:00N 51°60' E 003°49'5 9.2
2017-Jun-20 20:30N 51°58' E 003°41'1631.5
2017-Jun-20 20:00N 51°53' E 003°17'0 0.0
2017-Jun-20 19:30N 51°53' E 003°17'1 1.1
2017-Jun-20 18:59N 51°53' E 003°16'510.7
2017-Jun-20 18:30N 51°51' E 003°08'710.4
2017-Jun-20 17:50N 51°49' E 002°57'510.3
2017-Jun-20 17:20N 51°48' E 002°49'310.2
2017-Jun-20 17:00N 51°47' E 002°44'5 9.5
2017-Jun-20 16:30N 51°42' E 002°41'510.4
2017-Jun-20 16:01N 51°38' E 002°44'510.7
2017-Jun-20 15:30N 51°32' E 002°43'510.7
2017-Jun-20 15:00N 51°27' E 002°43'5 9.5
2017-Jun-20 14:31N 51°22' E 002°44'1212.2
2017-Jun-20 13:30N 51°22' E 003°04'510.8
2017-Jun-20 13:00N 51°21' E 003°12'0 0.7
2017-Jun-20 12:29N 51°21' E 003°12'0 0.0
2017-Jun-20 11:58N 51°21' E 003°12'0 0.0
2017-Jun-20 11:29N 51°21' E 003°12'0 0.0
2017-Jun-20 10:59N 51°21' E 003°12'0 0.0
2017-Jun-20 10:28N 51°21' E 003°12'0 0.0
2017-Jun-20 09:58N 51°21' E 003°12'0 0.0
2017-Jun-20 09:29N 51°21' E 003°12'0 0.0
2017-Jun-20 08:59N 51°21' E 003°12'0 0.0
2017-Jun-20 08:28N 51°21' E 003°12'0 0.0
2017-Jun-20 07:59N 51°21' E 003°12'0 0.0
2017-Jun-20 07:29N 51°21' E 003°12'0 0.0
2017-Jun-20 06:59N 51°21' E 003°12'0 0.0
2017-Jun-20 06:29N 51°21' E 003°12'0 0.0
2017-Jun-20 05:59N 51°21' E 003°12'0 0.0
2017-Jun-20 05:28N 51°21' E 003°12'0 0.0
2017-Jun-20 04:59N 51°21' E 003°12'0 0.0
2017-Jun-20 04:28N 51°21' E 003°12'0 0.0
2017-Jun-20 03:59N 51°21' E 003°12'0 0.0
2017-Jun-20 03:28N 51°21' E 003°12'0 0.0
2017-Jun-20 02:59N 51°21' E 003°12'0 0.0
2017-Jun-20 02:28N 51°21' E 003°12'0 0.0
2017-Jun-20 01:58N 51°21' E 003°12'0 0.0
2017-Jun-20 01:28N 51°21' E 003°12'0 0.0
2017-Jun-20 00:59N 51°21' E 003°12'0 0.0
2017-Jun-20 00:28N 51°21' E 003°12'0 0.0
2017-Jun-19 23:58N 51°21' E 003°12'0 0.0
2017-Jun-19 23:29N 51°21' E 003°12'0 0.0
2017-Jun-19 22:59N 51°21' E 003°12'0 0.0
2017-Jun-19 22:28N 51°21' E 003°12'0 0.0
2017-Jun-19 21:58N 51°21' E 003°12'0 0.0
2017-Jun-19 21:28N 51°21' E 003°12'0 0.0
2017-Jun-19 20:58N 51°21' E 003°12'0 0.0
2017-Jun-19 20:28N 51°21' E 003°12'0 0.0
2017-Jun-19 19:58N 51°21' E 003°12'0 0.0
2017-Jun-19 19:29N 51°21' E 003°12'0 0.0
2017-Jun-19 18:58N 51°21' E 003°12'0 0.0
2017-Jun-19 18:28N 51°21' E 003°12'0 0.0
2017-Jun-19 17:58N 51°21' E 003°12'0 0.0
2017-Jun-19 17:28N 51°21' E 003°12'0 0.0
2017-Jun-19 16:58N 51°21' E 003°12'0 0.0
2017-Jun-19 16:28N 51°21' E 003°12'0 0.0
2017-Jun-19 15:58N 51°21' E 003°12'0 0.0
2017-Jun-19 15:29N 51°21' E 003°12'0 0.0
2017-Jun-19 14:58N 51°21' E 003°12'0 0.0
2017-Jun-19 13:58N 51°21' E 003°12'0 0.0
2017-Jun-19 13:28N 51°21' E 003°12'0 0.0
2017-Jun-19 12:58N 51°21' E 003°12'0 0.0
2017-Jun-19 12:28N 51°21' E 003°12'0 0.0
2017-Jun-19 11:58N 51°21' E 003°12'0 0.0
2017-Jun-19 11:28N 51°21' E 003°12'0 0.0
2017-Jun-19 10:58N 51°21' E 003°12'0 0.0
2017-Jun-19 10:28N 51°21' E 003°12'0 0.0
2017-Jun-19 09:58N 51°21' E 003°12'0 0.0
2017-Jun-19 09:28N 51°21' E 003°12'  

Dump ship's entire track history